sensor_id;sensor_type;location;lat;lon;timestamp;P1;durP1;ratioP1;P2;durP2;ratioP2
34204;SDS011;20471;49.680;20.074;2022-07-01T00:02:18;17.23;;;11.43;;
34204;SDS011;20471;49.680;20.074;2022-07-01T00:04:45;13.08;;;11.00;;
34204;SDS011;20471;49.680;20.074;2022-07-01T00:07:11;12.60;;;10.58;;
34204;SDS011;20471;49.680;20.074;2022-07-01T00:09:38;16.15;;;10.68;;
34204;SDS011;20471;49.680;20.074;2022-07-01T00:12:05;12.60;;;9.80;;
34204;SDS011;20471;49.680;20.074;2022-07-01T00:14:33;11.30;;;10.10;;
34204;SDS011;20471;49.680;20.074;2022-07-01T00:17:00;13.13;;;10.85;;
34204;SDS011;20471;49.680;20.074;2022-07-01T00:19:27;13.55;;;10.88;;
34204;SDS011;20471;49.680;20.074;2022-07-01T00:21:53;17.62;;;11.05;;
34204;SDS011;20471;49.680;20.074;2022-07-01T00:24:20;13.28;;;10.38;;
34204;SDS011;20471;49.680;20.074;2022-07-01T00:26:46;16.07;;;11.18;;
34204;SDS011;20471;49.680;20.074;2022-07-01T00:29:13;12.13;;;10.78;;
34204;SDS011;20471;49.680;20.074;2022-07-01T00:31:40;12.90;;;10.00;;
34204;SDS011;20471;49.680;20.074;2022-07-01T00:34:06;12.05;;;9.73;;
34204;SDS011;20471;49.680;20.074;2022-07-01T00:36:33;12.40;;;9.73;;
34204;SDS011;20471;49.680;20.074;2022-07-01T00:39:00;11.63;;;9.93;;
34204;SDS011;20471;49.680;20.074;2022-07-01T00:41:27;11.65;;;10.35;;
34204;SDS011;20471;49.680;20.074;2022-07-01T00:43:53;11.43;;;9.20;;
34204;SDS011;20471;49.680;20.074;2022-07-01T00:46:21;14.45;;;10.05;;
34204;SDS011;20471;49.680;20.074;2022-07-01T00:48:50;12.37;;;9.70;;
34204;SDS011;20471;49.680;20.074;2022-07-01T00:51:18;13.58;;;9.50;;
34204;SDS011;20471;49.680;20.074;2022-07-01T00:53:45;13.40;;;10.10;;
34204;SDS011;20471;49.680;20.074;2022-07-01T00:56:13;11.78;;;10.45;;
34204;SDS011;20471;49.680;20.074;2022-07-01T00:58:40;11.78;;;9.83;;
34204;SDS011;20471;49.680;20.074;2022-07-01T01:01:07;12.58;;;9.95;;
34204;SDS011;20471;49.680;20.074;2022-07-01T01:03:33;14.55;;;10.25;;
34204;SDS011;20471;49.680;20.074;2022-07-01T01:06:00;14.63;;;9.58;;
34204;SDS011;20471;49.680;20.074;2022-07-01T01:08:28;13.32;;;9.20;;
34204;SDS011;20471;49.680;20.074;2022-07-01T01:10:56;12.53;;;9.83;;
34204;SDS011;20471;49.680;20.074;2022-07-01T01:13:23;12.43;;;9.63;;
34204;SDS011;20471;49.680;20.074;2022-07-01T01:15:49;11.73;;;9.80;;
34204;SDS011;20471;49.680;20.074;2022-07-01T01:18:16;10.80;;;9.30;;
34204;SDS011;20471;49.680;20.074;2022-07-01T01:20:42;13.22;;;9.65;;
34204;SDS011;20471;49.680;20.074;2022-07-01T01:23:09;11.60;;;9.65;;
34204;SDS011;20471;49.680;20.074;2022-07-01T01:25:35;13.45;;;9.58;;
34204;SDS011;20471;49.680;20.074;2022-07-01T01:28:02;11.55;;;9.08;;
34204;SDS011;20471;49.680;20.074;2022-07-01T01:30:30;13.40;;;9.55;;
34204;SDS011;20471;49.680;20.074;2022-07-01T01:32:56;13.55;;;10.72;;
34204;SDS011;20471;49.680;20.074;2022-07-01T01:35:23;15.35;;;10.38;;
34204;SDS011;20471;49.680;20.074;2022-07-01T01:37:50;11.93;;;9.25;;
34204;SDS011;20471;49.680;20.074;2022-07-01T01:40:17;12.78;;;9.75;;
34204;SDS011;20471;49.680;20.074;2022-07-01T01:42:44;12.58;;;9.80;;
34204;SDS011;20471;49.680;20.074;2022-07-01T01:45:11;11.73;;;9.03;;
34204;SDS011;20471;49.680;20.074;2022-07-01T01:47:38;14.03;;;9.98;;
34204;SDS011;20471;49.680;20.074;2022-07-01T01:50:05;13.85;;;9.90;;
34204;SDS011;20471;49.680;20.074;2022-07-01T01:52:33;13.62;;;9.88;;
34204;SDS011;20471;49.680;20.074;2022-07-01T01:55:03;12.90;;;9.70;;
34204;SDS011;20471;49.680;20.074;2022-07-01T01:57:30;10.85;;;9.23;;
34204;SDS011;20471;49.680;20.074;2022-07-01T01:59:57;10.10;;;8.98;;
34204;SDS011;20471;49.680;20.074;2022-07-01T02:02:23;11.45;;;9.70;;
34204;SDS011;20471;49.680;20.074;2022-07-01T02:04:50;10.58;;;8.45;;
34204;SDS011;20471;49.680;20.074;2022-07-01T02:07:16;11.45;;;9.53;;
34204;SDS011;20471;49.680;20.074;2022-07-01T02:09:43;12.13;;;9.20;;
34204;SDS011;20471;49.680;20.074;2022-07-01T02:12:10;12.50;;;9.20;;
34204;SDS011;20471;49.680;20.074;2022-07-01T02:14:37;10.20;;;9.00;;
34204;SDS011;20471;49.680;20.074;2022-07-01T02:17:03;15.25;;;10.63;;
34204;SDS011;20471;49.680;20.074;2022-07-01T02:19:30;12.00;;;10.00;;
34204;SDS011;20471;49.680;20.074;2022-07-01T02:21:56;12.28;;;9.70;;
34204;SDS011;20471;49.680;20.074;2022-07-01T02:24:23;13.60;;;9.93;;
34204;SDS011;20471;49.680;20.074;2022-07-01T02:26:49;10.90;;;9.23;;
34204;SDS011;20471;49.680;20.074;2022-07-01T02:29:16;9.88;;;8.85;;
34204;SDS011;20471;49.680;20.074;2022-07-01T02:31:43;13.43;;;9.13;;
34204;SDS011;20471;49.680;20.074;2022-07-01T02:34:09;13.72;;;9.38;;
34204;SDS011;20471;49.680;20.074;2022-07-01T02:36:36;14.83;;;9.45;;
34204;SDS011;20471;49.680;20.074;2022-07-01T02:39:03;13.30;;;9.23;;
34204;SDS011;20471;49.680;20.074;2022-07-01T02:41:29;12.53;;;8.65;;
34204;SDS011;20471;49.680;20.074;2022-07-01T02:43:56;10.90;;;8.85;;
34204;SDS011;20471;49.680;20.074;2022-07-01T02:46:23;10.45;;;9.43;;
34204;SDS011;20471;49.680;20.074;2022-07-01T02:48:49;18.62;;;10.38;;
34204;SDS011;20471;49.680;20.074;2022-07-01T02:51:16;10.58;;;9.48;;
34204;SDS011;20471;49.680;20.074;2022-07-01T02:53:42;11.88;;;9.30;;
34204;SDS011;20471;49.680;20.074;2022-07-01T02:56:09;12.93;;;9.68;;
34204;SDS011;20471;49.680;20.074;2022-07-01T02:58:36;15.45;;;9.18;;
34204;SDS011;20471;49.680;20.074;2022-07-01T03:01:02;11.00;;;8.35;;
34204;SDS011;20471;49.680;20.074;2022-07-01T03:03:29;14.23;;;8.80;;
34204;SDS011;20471;49.680;20.074;2022-07-01T03:05:55;11.05;;;9.88;;
34204;SDS011;20471;49.680;20.074;2022-07-01T03:08:23;16.02;;;10.00;;
34204;SDS011;20471;49.680;20.074;2022-07-01T03:10:49;16.93;;;10.03;;
34204;SDS011;20471;49.680;20.074;2022-07-01T03:13:16;11.88;;;10.03;;
34204;SDS011;20471;49.680;20.074;2022-07-01T03:15:44;13.62;;;8.95;;
34204;SDS011;20471;49.680;20.074;2022-07-01T03:18:11;10.65;;;8.43;;
34204;SDS011;20471;49.680;20.074;2022-07-01T03:20:38;12.10;;;9.25;;
34204;SDS011;20471;49.680;20.074;2022-07-01T03:23:05;12.28;;;8.88;;
34204;SDS011;20471;49.680;20.074;2022-07-01T03:25:31;12.05;;;9.83;;
34204;SDS011;20471;49.680;20.074;2022-07-01T03:27:58;12.78;;;8.75;;
34204;SDS011;20471;49.680;20.074;2022-07-01T03:30:26;12.30;;;9.68;;
34204;SDS011;20471;49.680;20.074;2022-07-01T03:32:53;10.65;;;8.85;;
34204;SDS011;20471;49.680;20.074;2022-07-01T03:35:19;13.83;;;9.60;;
34204;SDS011;20471;49.680;20.074;2022-07-01T03:38:01;12.93;;;10.13;;
34204;SDS011;20471;49.680;20.074;2022-07-01T03:40:29;11.80;;;8.80;;
34204;SDS011;20471;49.680;20.074;2022-07-01T03:42:57;14.13;;;10.00;;
34204;SDS011;20471;49.680;20.074;2022-07-01T03:45:25;13.95;;;9.63;;
34204;SDS011;20471;49.680;20.074;2022-07-01T03:47:51;15.00;;;10.03;;
34204;SDS011;20471;49.680;20.074;2022-07-01T03:50:20;11.73;;;9.88;;
34204;SDS011;20471;49.680;20.074;2022-07-01T03:52:47;13.75;;;9.73;;
34204;SDS011;20471;49.680;20.074;2022-07-01T03:55:14;14.55;;;9.48;;
34204;SDS011;20471;49.680;20.074;2022-07-01T03:57:42;10.20;;;8.95;;
34204;SDS011;20471;49.680;20.074;2022-07-01T04:00:09;12.63;;;9.35;;
34204;SDS011;20471;49.680;20.074;2022-07-01T04:02:37;13.58;;;10.15;;
34204;SDS011;20471;49.680;20.074;2022-07-01T04:05:03;10.23;;;9.10;;
34204;SDS011;20471;49.680;20.074;2022-07-01T04:07:30;14.95;;;10.15;;
34204;SDS011;20471;49.680;20.074;2022-07-01T04:09:57;12.20;;;9.43;;
34204;SDS011;20471;49.680;20.074;2022-07-01T04:12:23;12.55;;;9.20;;
34204;SDS011;20471;49.680;20.074;2022-07-01T04:14:50;11.18;;;9.93;;
34204;SDS011;20471;49.680;20.074;2022-07-01T04:17:17;15.98;;;10.95;;
34204;SDS011;20471;49.680;20.074;2022-07-01T04:19:43;15.93;;;11.33;;
34204;SDS011;20471;49.680;20.074;2022-07-01T04:22:10;18.77;;;10.85;;
34204;SDS011;20471;49.680;20.074;2022-07-01T04:24:55;18.40;;;12.00;;
34204;SDS011;20471;49.680;20.074;2022-07-01T04:27:22;15.23;;;11.45;;
34204;SDS011;20471;49.680;20.074;2022-07-01T04:29:48;16.02;;;11.90;;
34204;SDS011;20471;49.680;20.074;2022-07-01T04:32:15;13.25;;;10.53;;
34204;SDS011;20471;49.680;20.074;2022-07-01T04:34:41;18.50;;;11.85;;
34204;SDS011;20471;49.680;20.074;2022-07-01T04:37:08;13.13;;;11.63;;
34204;SDS011;20471;49.680;20.074;2022-07-01T04:39:35;16.82;;;10.90;;
34204;SDS011;20471;49.680;20.074;2022-07-01T04:42:01;11.60;;;10.05;;
34204;SDS011;20471;49.680;20.074;2022-07-01T04:44:29;12.43;;;10.50;;
34204;SDS011;20471;49.680;20.074;2022-07-01T04:46:58;17.77;;;11.88;;
34204;SDS011;20471;49.680;20.074;2022-07-01T04:49:26;16.23;;;10.95;;
34204;SDS011;20471;49.680;20.074;2022-07-01T04:51:54;15.30;;;11.75;;
34204;SDS011;20471;49.680;20.074;2022-07-01T04:54:21;15.58;;;11.05;;
34204;SDS011;20471;49.680;20.074;2022-07-01T04:56:48;18.95;;;11.85;;
34204;SDS011;20471;49.680;20.074;2022-07-01T04:59:14;21.68;;;12.23;;
34204;SDS011;20471;49.680;20.074;2022-07-01T05:01:42;16.95;;;12.33;;
34204;SDS011;20471;49.680;20.074;2022-07-01T05:04:10;20.90;;;12.45;;
34204;SDS011;20471;49.680;20.074;2022-07-01T05:06:37;14.30;;;10.53;;
34204;SDS011;20471;49.680;20.074;2022-07-01T05:09:04;13.40;;;11.60;;
34204;SDS011;20471;49.680;20.074;2022-07-01T05:11:31;12.78;;;10.48;;
34204;SDS011;20471;49.680;20.074;2022-07-01T05:13:57;19.42;;;11.00;;
34204;SDS011;20471;49.680;20.074;2022-07-01T05:16:24;14.55;;;10.78;;
34204;SDS011;20471;49.680;20.074;2022-07-01T05:18:51;12.68;;;10.30;;
34204;SDS011;20471;49.680;20.074;2022-07-01T05:21:36;14.07;;;10.20;;
34204;SDS011;20471;49.680;20.074;2022-07-01T05:24:21;11.22;;;9.75;;
34204;SDS011;20471;49.680;20.074;2022-07-01T05:26:48;11.88;;;10.63;;
34204;SDS011;20471;49.680;20.074;2022-07-01T05:29:16;13.98;;;10.72;;
34204;SDS011;20471;49.680;20.074;2022-07-01T05:31:42;15.15;;;10.93;;
34204;SDS011;20471;49.680;20.074;2022-07-01T05:34:09;13.05;;;11.18;;
34204;SDS011;20471;49.680;20.074;2022-07-01T05:36:35;14.95;;;10.70;;
34204;SDS011;20471;49.680;20.074;2022-07-01T05:39:02;12.98;;;11.22;;
34204;SDS011;20471;49.680;20.074;2022-07-01T05:41:30;14.23;;;12.45;;
34204;SDS011;20471;49.680;20.074;2022-07-01T05:43:57;12.78;;;11.45;;
34204;SDS011;20471;49.680;20.074;2022-07-01T05:46:23;13.35;;;12.05;;
34204;SDS011;20471;49.680;20.074;2022-07-01T05:48:50;15.45;;;11.38;;
34204;SDS011;20471;49.680;20.074;2022-07-01T05:51:16;14.07;;;11.80;;
34204;SDS011;20471;49.680;20.074;2022-07-01T05:53:43;14.13;;;12.43;;
34204;SDS011;20471;49.680;20.074;2022-07-01T05:56:10;15.50;;;10.50;;
34204;SDS011;20471;49.680;20.074;2022-07-01T05:58:36;17.60;;;11.38;;
34204;SDS011;20471;49.680;20.074;2022-07-01T06:01:03;17.37;;;11.45;;
34204;SDS011;20471;49.680;20.074;2022-07-01T06:03:29;15.53;;;11.68;;
34204;SDS011;20471;49.680;20.074;2022-07-01T06:05:56;12.53;;;10.85;;
34204;SDS011;20471;49.680;20.074;2022-07-01T06:08:22;15.23;;;11.25;;
34204;SDS011;20471;49.680;20.074;2022-07-01T06:10:49;13.15;;;11.08;;
34204;SDS011;20471;49.680;20.074;2022-07-01T06:13:16;12.20;;;11.05;;
34204;SDS011;20471;49.680;20.074;2022-07-01T06:15:43;13.58;;;10.93;;
34204;SDS011;20471;49.680;20.074;2022-07-01T06:18:09;12.82;;;11.40;;
34204;SDS011;20471;49.680;20.074;2022-07-01T06:20:36;12.65;;;11.35;;
34204;SDS011;20471;49.680;20.074;2022-07-01T06:23:02;15.43;;;11.75;;
34204;SDS011;20471;49.680;20.074;2022-07-01T06:25:29;15.58;;;11.38;;
34204;SDS011;20471;49.680;20.074;2022-07-01T06:27:55;14.30;;;11.18;;
34204;SDS011;20471;49.680;20.074;2022-07-01T06:30:22;14.78;;;11.30;;
34204;SDS011;20471;49.680;20.074;2022-07-01T06:32:48;12.20;;;10.85;;
34204;SDS011;20471;49.680;20.074;2022-07-01T06:35:15;16.60;;;10.98;;
34204;SDS011;20471;49.680;20.074;2022-07-01T06:37:42;14.18;;;11.65;;
34204;SDS011;20471;49.680;20.074;2022-07-01T06:40:08;17.62;;;11.57;;
34204;SDS011;20471;49.680;20.074;2022-07-01T06:42:36;13.80;;;10.78;;
34204;SDS011;20471;49.680;20.074;2022-07-01T06:45:03;11.90;;;10.53;;
34204;SDS011;20471;49.680;20.074;2022-07-01T06:47:31;16.37;;;11.43;;
34204;SDS011;20471;49.680;20.074;2022-07-01T06:49:57;13.78;;;10.55;;
34204;SDS011;20471;49.680;20.074;2022-07-01T06:52:24;11.18;;;9.80;;
34204;SDS011;20471;49.680;20.074;2022-07-01T06:54:50;11.03;;;9.00;;
34204;SDS011;20471;49.680;20.074;2022-07-01T06:57:17;13.30;;;10.18;;
34204;SDS011;20471;49.680;20.074;2022-07-01T06:59:44;14.05;;;10.25;;
34204;SDS011;20471;49.680;20.074;2022-07-01T07:02:10;14.40;;;9.95;;
34204;SDS011;20471;49.680;20.074;2022-07-01T07:04:39;13.15;;;10.53;;
34204;SDS011;20471;49.680;20.074;2022-07-01T07:07:06;12.65;;;11.25;;
34204;SDS011;20471;49.680;20.074;2022-07-01T07:09:32;12.45;;;11.15;;
34204;SDS011;20471;49.680;20.074;2022-07-01T07:11:59;14.33;;;10.75;;
34204;SDS011;20471;49.680;20.074;2022-07-01T07:14:26;12.50;;;10.98;;
34204;SDS011;20471;49.680;20.074;2022-07-01T07:16:52;11.88;;;10.63;;
34204;SDS011;20471;49.680;20.074;2022-07-01T07:19:20;11.38;;;10.35;;
34204;SDS011;20471;49.680;20.074;2022-07-01T07:21:46;15.75;;;10.05;;
34204;SDS011;20471;49.680;20.074;2022-07-01T07:24:13;14.90;;;10.53;;
34204;SDS011;20471;49.680;20.074;2022-07-01T07:26:39;13.62;;;10.38;;
34204;SDS011;20471;49.680;20.074;2022-07-01T07:29:06;13.13;;;10.58;;
34204;SDS011;20471;49.680;20.074;2022-07-01T07:31:33;12.98;;;11.25;;
34204;SDS011;20471;49.680;20.074;2022-07-01T07:33:59;11.95;;;9.58;;
34204;SDS011;20471;49.680;20.074;2022-07-01T07:36:26;13.28;;;10.00;;
34204;SDS011;20471;49.680;20.074;2022-07-01T07:38:52;12.28;;;9.95;;
34204;SDS011;20471;49.680;20.074;2022-07-01T07:41:19;10.82;;;9.58;;
34204;SDS011;20471;49.680;20.074;2022-07-01T07:43:46;11.63;;;9.23;;
34204;SDS011;20471;49.680;20.074;2022-07-01T07:46:14;10.78;;;9.60;;
34204;SDS011;20471;49.680;20.074;2022-07-01T07:48:41;12.93;;;9.50;;
34204;SDS011;20471;49.680;20.074;2022-07-01T07:51:09;11.65;;;9.43;;
34204;SDS011;20471;49.680;20.074;2022-07-01T07:53:38;13.15;;;9.60;;
34204;SDS011;20471;49.680;20.074;2022-07-01T07:56:04;12.03;;;9.95;;
34204;SDS011;20471;49.680;20.074;2022-07-01T07:58:31;13.30;;;10.50;;
34204;SDS011;20471;49.680;20.074;2022-07-01T08:00:58;12.20;;;9.60;;
34204;SDS011;20471;49.680;20.074;2022-07-01T08:03:25;12.30;;;9.30;;
34204;SDS011;20471;49.680;20.074;2022-07-01T08:05:51;13.00;;;10.20;;
34204;SDS011;20471;49.680;20.074;2022-07-01T08:08:18;11.83;;;9.73;;
34204;SDS011;20471;49.680;20.074;2022-07-01T08:10:44;11.18;;;9.08;;
34204;SDS011;20471;49.680;20.074;2022-07-01T08:13:11;9.40;;;8.30;;
34204;SDS011;20471;49.680;20.074;2022-07-01T08:15:37;12.15;;;8.23;;
34204;SDS011;20471;49.680;20.074;2022-07-01T08:18:05;9.85;;;8.13;;
34204;SDS011;20471;49.680;20.074;2022-07-01T08:20:32;13.18;;;8.30;;
34204;SDS011;20471;49.680;20.074;2022-07-01T08:22:58;11.08;;;7.65;;
34204;SDS011;20471;49.680;20.074;2022-07-01T08:25:25;18.48;;;7.67;;
34204;SDS011;20471;49.680;20.074;2022-07-01T08:27:51;11.55;;;7.47;;
34204;SDS011;20471;49.680;20.074;2022-07-01T08:30:18;11.18;;;7.08;;
34204;SDS011;20471;49.680;20.074;2022-07-01T08:32:45;8.10;;;7.17;;
34204;SDS011;20471;49.680;20.074;2022-07-01T08:35:11;9.38;;;7.03;;
34204;SDS011;20471;49.680;20.074;2022-07-01T08:37:38;13.25;;;7.08;;
34204;SDS011;20471;49.680;20.074;2022-07-01T08:40:05;13.03;;;6.80;;
34204;SDS011;20471;49.680;20.074;2022-07-01T08:42:33;10.30;;;6.12;;
34204;SDS011;20471;49.680;20.074;2022-07-01T08:44:59;11.33;;;6.33;;
34204;SDS011;20471;49.680;20.074;2022-07-01T08:47:26;12.43;;;6.10;;
34204;SDS011;20471;49.680;20.074;2022-07-01T08:49:52;8.78;;;5.15;;
34204;SDS011;20471;49.680;20.074;2022-07-01T08:52:19;9.00;;;5.10;;
34204;SDS011;20471;49.680;20.074;2022-07-01T08:54:46;6.58;;;4.62;;
34204;SDS011;20471;49.680;20.074;2022-07-01T08:57:13;9.08;;;5.30;;
34204;SDS011;20471;49.680;20.074;2022-07-01T09:05:26;6.15;;;4.58;;
34204;SDS011;20471;49.680;20.074;2022-07-01T09:07:59;10.68;;;4.62;;
34204;SDS011;20471;49.680;20.074;2022-07-01T09:10:29;11.03;;;4.62;;
34204;SDS011;20471;49.680;20.074;2022-07-01T09:15:34;7.87;;;4.35;;
34204;SDS011;20471;49.680;20.074;2022-07-01T09:18:03;6.10;;;4.40;;
34204;SDS011;20471;49.680;20.074;2022-07-01T09:23:13;5.53;;;4.62;;
34204;SDS011;20471;49.680;20.074;2022-07-01T09:25:48;12.43;;;4.65;;
34204;SDS011;20471;49.680;20.074;2022-07-01T09:28:18;6.95;;;4.75;;
34204;SDS011;20471;49.680;20.074;2022-07-01T09:30:50;10.75;;;4.92;;
34204;SDS011;20471;49.680;20.074;2022-07-01T09:33:20;10.75;;;4.87;;
34204;SDS011;20471;49.680;20.074;2022-07-01T09:35:52;10.05;;;4.90;;
34204;SDS011;20471;49.680;20.074;2022-07-01T09:38:20;7.25;;;5.00;;
34204;SDS011;20471;49.680;20.074;2022-07-01T09:43:30;8.50;;;4.60;;
34204;SDS011;20471;49.680;20.074;2022-07-01T09:46:05;6.75;;;4.80;;
34204;SDS011;20471;49.680;20.074;2022-07-01T09:51:06;9.25;;;4.75;;
34204;SDS011;20471;49.680;20.074;2022-07-01T09:53:35;6.25;;;4.80;;
34204;SDS011;20471;49.680;20.074;2022-07-01T09:56:01;8.68;;;4.87;;
34204;SDS011;20471;49.680;20.074;2022-07-01T09:58:29;6.97;;;5.15;;
34204;SDS011;20471;49.680;20.074;2022-07-01T10:00:58;10.15;;;4.80;;
34204;SDS011;20471;49.680;20.074;2022-07-01T10:03:25;8.68;;;4.85;;
34204;SDS011;20471;49.680;20.074;2022-07-01T10:14:44;9.40;;;5.20;;
34204;SDS011;20471;49.680;20.074;2022-07-01T10:17:25;7.00;;;5.12;;
34204;SDS011;20471;49.680;20.074;2022-07-01T10:20:05;7.25;;;5.03;;
34204;SDS011;20471;49.680;20.074;2022-07-01T10:22:39;8.75;;;5.10;;
34204;SDS011;20471;49.680;20.074;2022-07-01T10:28:15;6.85;;;5.00;;
34204;SDS011;20471;49.680;20.074;2022-07-01T10:31:01;8.35;;;4.90;;
34204;SDS011;20471;49.680;20.074;2022-07-01T10:41:33;8.58;;;4.60;;
34204;SDS011;20471;49.680;20.074;2022-07-01T10:44:22;10.60;;;4.92;;
34204;SDS011;20471;49.680;20.074;2022-07-01T10:52:17;6.58;;;4.47;;
34204;SDS011;20471;49.680;20.074;2022-07-01T10:59:45;8.75;;;4.75;;
34204;SDS011;20471;49.680;20.074;2022-07-01T11:02:16;11.80;;;7.53;;
34204;SDS011;20471;49.680;20.074;2022-07-01T11:04:49;9.53;;;7.17;;
34204;SDS011;20471;49.680;20.074;2022-07-01T11:07:17;8.95;;;8.05;;
34204;SDS011;20471;49.680;20.074;2022-07-01T11:09:44;11.05;;;8.30;;
34204;SDS011;20471;49.680;20.074;2022-07-01T11:12:11;11.73;;;8.20;;
34204;SDS011;20471;49.680;20.074;2022-07-01T11:14:42;11.57;;;7.75;;
34204;SDS011;20471;49.680;20.074;2022-07-01T11:17:09;12.50;;;8.25;;
34204;SDS011;20471;49.680;20.074;2022-07-01T11:19:36;8.90;;;7.92;;
34204;SDS011;20471;49.680;20.074;2022-07-01T11:22:03;8.25;;;7.45;;
34204;SDS011;20471;49.680;20.074;2022-07-01T11:24:31;14.30;;;7.97;;
34204;SDS011;20471;49.680;20.074;2022-07-01T11:27:00;11.18;;;7.33;;
34204;SDS011;20471;49.680;20.074;2022-07-01T11:29:35;12.90;;;7.62;;
34204;SDS011;20471;49.680;20.074;2022-07-01T11:32:01;8.93;;;7.65;;
34204;SDS011;20471;49.680;20.074;2022-07-01T11:34:29;13.08;;;8.10;;
34204;SDS011;20471;49.680;20.074;2022-07-01T11:36:56;8.45;;;7.35;;
34204;SDS011;20471;49.680;20.074;2022-07-01T11:39:41;9.75;;;7.20;;
34204;SDS011;20471;49.680;20.074;2022-07-01T11:42:09;9.80;;;7.95;;
34204;SDS011;20471;49.680;20.074;2022-07-01T11:47:08;8.30;;;7.25;;
34204;SDS011;20471;49.680;20.074;2022-07-01T11:49:44;11.08;;;7.53;;
34204;SDS011;20471;49.680;20.074;2022-07-01T11:52:13;7.65;;;6.85;;
34204;SDS011;20471;49.680;20.074;2022-07-01T11:54:41;9.95;;;7.33;;
34204;SDS011;20471;49.680;20.074;2022-07-01T11:57:15;7.70;;;6.95;;
34204;SDS011;20471;49.680;20.074;2022-07-01T11:59:45;10.48;;;6.75;;
34204;SDS011;20471;49.680;20.074;2022-07-01T12:02:13;10.10;;;6.95;;
34204;SDS011;20471;49.680;20.074;2022-07-01T12:04:43;8.30;;;6.97;;
34204;SDS011;20471;49.680;20.074;2022-07-01T12:07:11;7.33;;;6.55;;
34204;SDS011;20471;49.680;20.074;2022-07-01T12:09:39;7.03;;;6.42;;
34204;SDS011;20471;49.680;20.074;2022-07-01T12:12:07;10.63;;;6.70;;
34204;SDS011;20471;49.680;20.074;2022-07-01T12:14:51;7.03;;;6.42;;
34204;SDS011;20471;49.680;20.074;2022-07-01T12:17:21;7.10;;;6.40;;
34204;SDS011;20471;49.680;20.074;2022-07-01T12:19:49;9.43;;;6.70;;
34204;SDS011;20471;49.680;20.074;2022-07-01T12:22:24;10.78;;;6.08;;
34204;SDS011;20471;49.680;20.074;2022-07-01T12:24:53;11.08;;;5.80;;
34204;SDS011;20471;49.680;20.074;2022-07-01T12:27:34;8.63;;;5.80;;
34204;SDS011;20471;49.680;20.074;2022-07-01T12:30:04;10.32;;;5.75;;
34204;SDS011;20471;49.680;20.074;2022-07-01T12:32:34;8.78;;;6.03;;
34204;SDS011;20471;49.680;20.074;2022-07-01T12:35:04;12.30;;;6.47;;
34204;SDS011;20471;49.680;20.074;2022-07-01T12:37:52;9.23;;;6.20;;
34204;SDS011;20471;49.680;20.074;2022-07-01T12:40:22;10.03;;;5.55;;
34204;SDS011;20471;49.680;20.074;2022-07-01T12:42:53;7.30;;;5.85;;
34204;SDS011;20471;49.680;20.074;2022-07-01T12:45:23;13.62;;;6.17;;
34204;SDS011;20471;49.680;20.074;2022-07-01T12:50:20;10.15;;;6.30;;
34204;SDS011;20471;49.680;20.074;2022-07-01T12:53:12;11.88;;;7.22;;
34204;SDS011;20471;49.680;20.074;2022-07-01T12:55:47;8.40;;;7.42;;
34204;SDS011;20471;49.680;20.074;2022-07-01T12:58:18;10.85;;;8.08;;
34204;SDS011;20471;49.680;20.074;2022-07-01T13:00:51;12.68;;;8.30;;
34204;SDS011;20471;49.680;20.074;2022-07-01T13:03:20;11.45;;;8.60;;
34204;SDS011;20471;49.680;20.074;2022-07-01T13:05:49;8.85;;;7.90;;
34204;SDS011;20471;49.680;20.074;2022-07-01T13:08:18;11.93;;;7.47;;
34204;SDS011;20471;49.680;20.074;2022-07-01T13:10:45;13.25;;;8.55;;
34204;SDS011;20471;49.680;20.074;2022-07-01T13:13:13;10.95;;;7.65;;
34204;SDS011;20471;49.680;20.074;2022-07-01T13:18:11;8.03;;;6.62;;
34204;SDS011;20471;49.680;20.074;2022-07-01T13:20:40;7.92;;;6.95;;
34204;SDS011;20471;49.680;20.074;2022-07-01T13:23:09;9.38;;;6.97;;
34204;SDS011;20471;49.680;20.074;2022-07-01T13:25:35;8.83;;;6.40;;
34204;SDS011;20471;49.680;20.074;2022-07-01T13:28:03;11.63;;;6.22;;
34204;SDS011;20471;49.680;20.074;2022-07-01T13:30:30;9.48;;;5.87;;
34204;SDS011;20471;49.680;20.074;2022-07-01T13:32:56;9.50;;;5.95;;
34204;SDS011;20471;49.680;20.074;2022-07-01T13:35:23;11.90;;;6.25;;
34204;SDS011;20471;49.680;20.074;2022-07-01T13:37:50;9.00;;;7.17;;
34204;SDS011;20471;49.680;20.074;2022-07-01T13:40:17;9.63;;;7.22;;
34204;SDS011;20471;49.680;20.074;2022-07-01T13:42:44;9.63;;;6.60;;
34204;SDS011;20471;49.680;20.074;2022-07-01T13:45:11;10.30;;;6.60;;
34204;SDS011;20471;49.680;20.074;2022-07-01T13:47:39;8.80;;;6.70;;
34204;SDS011;20471;49.680;20.074;2022-07-01T13:50:06;9.08;;;6.85;;
34204;SDS011;20471;49.680;20.074;2022-07-01T13:52:34;10.28;;;6.65;;
34204;SDS011;20471;49.680;20.074;2022-07-01T13:55:00;7.78;;;6.45;;
34204;SDS011;20471;49.680;20.074;2022-07-01T13:57:27;11.43;;;6.60;;
34204;SDS011;20471;49.680;20.074;2022-07-01T13:59:54;7.22;;;5.65;;
34204;SDS011;20471;49.680;20.074;2022-07-01T14:02:22;10.58;;;6.08;;
34204;SDS011;20471;49.680;20.074;2022-07-01T14:04:49;7.97;;;6.45;;
34204;SDS011;20471;49.680;20.074;2022-07-01T14:07:16;7.70;;;6.05;;
34204;SDS011;20471;49.680;20.074;2022-07-01T14:09:42;8.33;;;6.05;;
34204;SDS011;20471;49.680;20.074;2022-07-01T14:12:10;6.20;;;5.47;;
34204;SDS011;20471;49.680;20.074;2022-07-01T14:14:37;7.90;;;6.12;;
34204;SDS011;20471;49.680;20.074;2022-07-01T14:17:04;8.08;;;5.80;;
34204;SDS011;20471;49.680;20.074;2022-07-01T14:19:31;9.33;;;6.17;;
34204;SDS011;20471;49.680;20.074;2022-07-01T14:21:59;9.13;;;5.65;;
34204;SDS011;20471;49.680;20.074;2022-07-01T14:24:26;7.78;;;6.22;;
34204;SDS011;20471;49.680;20.074;2022-07-01T14:26:53;7.55;;;5.85;;
34204;SDS011;20471;49.680;20.074;2022-07-01T14:29:19;8.43;;;5.97;;
34204;SDS011;20471;49.680;20.074;2022-07-01T14:31:46;12.33;;;6.22;;
34204;SDS011;20471;49.680;20.074;2022-07-01T14:34:13;9.58;;;6.35;;
34204;SDS011;20471;49.680;20.074;2022-07-01T14:36:40;12.45;;;5.78;;
34204;SDS011;20471;49.680;20.074;2022-07-01T14:39:06;7.17;;;6.12;;
34204;SDS011;20471;49.680;20.074;2022-07-01T14:41:33;10.03;;;6.20;;
34204;SDS011;20471;49.680;20.074;2022-07-01T14:43:59;8.50;;;6.35;;
34204;SDS011;20471;49.680;20.074;2022-07-01T14:46:26;10.82;;;6.37;;
34204;SDS011;20471;49.680;20.074;2022-07-01T14:48:52;12.70;;;6.00;;
34204;SDS011;20471;49.680;20.074;2022-07-01T14:51:19;11.12;;;6.75;;
34204;SDS011;20471;49.680;20.074;2022-07-01T14:53:46;10.68;;;6.65;;
34204;SDS011;20471;49.680;20.074;2022-07-01T14:56:12;10.38;;;7.08;;
34204;SDS011;20471;49.680;20.074;2022-07-01T14:58:39;10.68;;;6.25;;
34204;SDS011;20471;49.680;20.074;2022-07-01T15:01:08;11.03;;;7.53;;
34204;SDS011;20471;49.680;20.074;2022-07-01T15:03:36;9.40;;;6.17;;
34204;SDS011;20471;49.680;20.074;2022-07-01T15:06:03;8.75;;;6.85;;
34204;SDS011;20471;49.680;20.074;2022-07-01T15:08:30;9.40;;;6.87;;
34204;SDS011;20471;49.680;20.074;2022-07-01T15:10:56;9.00;;;6.85;;
34204;SDS011;20471;49.680;20.074;2022-07-01T15:13:25;10.95;;;7.30;;
34204;SDS011;20471;49.680;20.074;2022-07-01T15:15:51;15.78;;;8.50;;
34204;SDS011;20471;49.680;20.074;2022-07-01T15:18:18;12.88;;;8.48;;
34204;SDS011;20471;49.680;20.074;2022-07-01T15:20:44;12.58;;;8.53;;